Time;durP1;ratioP1;P1;durP2;ratioP2;P2;SDS_P1;SDS_P2;PMS_P1;PMS_P2;Temp;Humidity;BMP_temperature;BMP_pressure;BME280_temperature;BME280_humidity;BME280_pressure;Samples;Min_cycle;Max_cycle;Signal;HPM_P1;HPM_P2
2022/11/17 00:01:48;;;;;;;0.40;0.20;;;;;;;;;;4989045;28;20037;-78
2022/11/17 00:04:14;;;;;;;0.20;0.15;;;;;;;;;;4988231;28;20038;-79
2022/11/17 00:06:40;;;;;;;0.20;0.13;;;;;;;;;;4990095;28;20077;-80
2022/11/17 00:09:10;;;;;;;0.20;0.20;;;;;;;;;;4959376;28;20035;-81
2022/11/17 00:14:33;;;;;;;0.20;0.10;;;;;;;;;;5002138;28;20109;-80
2022/11/17 00:17:04;;;;;;;0.20;0.10;;;;;;;;;;4966327;28;20121;-79
2022/11/17 00:22:15;;;;;;;0.20;0.10;;;;;;;;;;4967489;28;20042;-79
2022/11/17 00:24:41;;;;;;;0.47;0.47;;;;;;;;;;4990334;28;20467;-78
2022/11/17 00:27:07;;;;;;;0.20;0.10;;;;;;;;;;4983552;28;20731;-80
2022/11/17 00:29:33;;;;;;;0.20;0.10;;;;;;;;;;4954402;28;20064;-79
2022/11/17 00:34:44;;;;;;;0.80;0.20;;;;;;;;;;4989984;28;20038;-78
2022/11/17 00:37:10;;;;;;;0.30;0.30;;;;;;;;;;4986879;28;20038;-77
2022/11/17 00:39:36;;;;;;;0.20;0.10;;;;;;;;;;4986020;28;20343;-77
2022/11/17 00:42:02;;;;;;;0.20;0.10;;;;;;;;;;4957177;28;20042;-80
2022/11/17 00:44:29;;;;;;;0.20;0.10;;;;;;;;;;5009041;28;20294;-82
2022/11/17 00:46:55;;;;;;;0.82;0.68;;;;;;;;;;4991461;28;20045;-79
2022/11/17 00:49:24;;;;;;;0.20;0.10;;;;;;;;;;4985421;28;20049;-80
2022/11/17 00:51:54;;;;;;;0.35;0.10;;;;;;;;;;5001705;28;20457;-80
2022/11/17 00:54:20;;;;;;;0.20;0.10;;;;;;;;;;4985153;28;20070;-85
2022/11/17 00:56:47;;;;;;;0.20;0.20;;;;;;;;;;4968179;28;20053;-81
2022/11/17 00:59:13;;;;;;;0.20;0.10;;;;;;;;;;4967903;28;20054;-79
2022/11/17 01:01:39;;;;;;;0.20;0.10;;;;;;;;;;4969113;28;20038;-79
2022/11/17 01:04:06;;;;;;;0.20;0.10;;;;;;;;;;4986639;28;20044;-78
2022/11/17 01:06:39;;;;;;;0.20;0.10;;;;;;;;;;4972677;28;20053;-78
2022/11/17 01:09:16;;;;;;;0.20;0.10;;;;;;;;;;4984480;28;20031;-80
2022/11/17 01:11:43;;;;;;;0.20;0.10;;;;;;;;;;4987721;28;20069;-79
2022/11/17 01:14:13;;;;;;;0.20;0.10;;;;;;;;;;4997886;28;20041;-79
2022/11/17 01:16:40;;;;;;;0.20;0.10;;;;;;;;;;4998850;28;20416;-80
2022/11/17 01:19:06;;;;;;;0.20;0.10;;;;;;;;;;4990999;28;20045;-78
2022/11/17 01:21:32;;;;;;;0.20;0.10;;;;;;;;;;4992441;28;20050;-79
2022/11/17 01:23:59;;;;;;;0.20;0.10;;;;;;;;;;4993520;28;20042;-80
2022/11/17 01:26:26;;;;;;;0.20;0.10;;;;;;;;;;4991116;28;20042;-80
2022/11/17 01:28:53;;;;;;;0.20;0.10;;;;;;;;;;4973659;28;20345;-79
2022/11/17 01:31:23;;;;;;;0.20;0.10;;;;;;;;;;4989986;28;20054;-82
2022/11/17 01:33:50;;;;;;;0.20;0.10;;;;;;;;;;4991550;28;20382;-79
2022/11/17 01:36:20;;;;;;;0.20;0.10;;;;;;;;;;4994590;28;20101;-81
2022/11/17 01:38:46;;;;;;;0.20;0.10;;;;;;;;;;4992034;28;20061;-79
2022/11/17 01:41:20;;;;;;;0.80;0.32;;;;;;;;;;4996671;28;20401;-79
2022/11/17 01:43:48;;;;;;;0.20;0.10;;;;;;;;;;4995567;28;20190;-80
2022/11/17 01:46:29;;;;;;;0.20;0.10;;;;;;;;;;4999088;28;20408;-81
2022/11/17 01:48:58;;;;;;;0.20;0.10;;;;;;;;;;4999374;28;20090;-80
2022/11/17 01:51:24;;;;;;;0.50;0.40;;;;;;;;;;5006589;28;20504;-78
2022/11/17 01:53:51;;;;;;;0.20;0.10;;;;;;;;;;4991835;28;20034;-82
2022/11/17 01:56:19;;;;;;;0.20;0.10;;;;;;;;;;4993173;28;20506;-79
2022/11/17 01:58:57;;;;;;;0.20;0.10;;;;;;;;;;4987270;28;20382;-78
2022/11/17 02:01:24;;;;;;;0.20;0.10;;;;;;;;;;4976390;28;20041;-79
2022/11/17 02:03:50;;;;;;;0.20;0.10;;;;;;;;;;4975541;28;20045;-79
2022/11/17 02:06:33;;;;;;;0.20;0.10;;;;;;;;;;4993700;28;20034;-78
2022/11/17 02:09:00;;;;;;;0.85;0.52;;;;;;;;;;4991258;28;20088;-78
2022/11/17 02:11:27;;;;;;;0.20;0.20;;;;;;;;;;4995257;28;20302;-77
2022/11/17 02:13:54;;;;;;;0.20;0.10;;;;;;;;;;4994928;28;20522;-80
2022/11/17 02:16:20;;;;;;;0.20;0.10;;;;;;;;;;4995439;28;20038;-78
2022/11/17 02:18:46;;;;;;;0.20;0.10;;;;;;;;;;4992449;28;20046;-79
2022/11/17 02:21:12;;;;;;;0.20;0.10;;;;;;;;;;4999437;28;20073;-80
2022/11/17 02:23:39;;;;;;;2.95;0.55;;;;;;;;;;4991693;28;20093;-78
2022/11/17 02:26:23;;;;;;;0.20;0.10;;;;;;;;;;4988068;28;20053;-80
2022/11/17 02:29:04;;;;;;;0.20;0.10;;;;;;;;;;4970289;28;20041;-78
2022/11/17 02:31:42;;;;;;;0.20;0.10;;;;;;;;;;4986237;28;20054;-79
2022/11/17 02:34:20;;;;;;;0.20;0.10;;;;;;;;;;4988427;28;20559;-78
2022/11/17 02:36:53;;;;;;;0.28;0.25;;;;;;;;;;5002167;28;20042;-80
2022/11/17 02:39:31;;;;;;;0.20;0.10;;;;;;;;;;4986438;28;20038;-78
2022/11/17 02:42:17;;;;;;;0.20;0.10;;;;;;;;;;5029800;23;20095;-82
2022/11/17 02:44:54;;;;;;;0.20;0.10;;;;;;;;;;5023766;28;20105;-83
2022/11/17 02:47:23;;;;;;;0.20;0.20;;;;;;;;;;5009618;28;20465;-84
2022/11/17 02:49:58;;;;;;;0.20;0.10;;;;;;;;;;5026151;28;20499;-82
2022/11/17 02:52:26;;;;;;;0.20;0.10;;;;;;;;;;5044120;28;20037;-86
2022/11/17 02:54:52;;;;;;;0.40;0.40;;;;;;;;;;5027248;28;20067;-81
2022/11/17 02:57:34;;;;;;;0.20;0.10;;;;;;;;;;5024035;28;20489;-84
2022/11/17 03:00:03;;;;;;;0.20;0.05;;;;;;;;;;5042259;28;20248;-83
2022/11/17 03:02:38;;;;;;;0.20;0.10;;;;;;;;;;5019733;28;20499;-82
2022/11/17 03:05:07;;;;;;;0.20;0.10;;;;;;;;;;5039653;28;20411;-82
2022/11/17 03:07:46;;;;;;;0.20;0.10;;;;;;;;;;5043899;28;20037;-84
2022/11/17 03:10:27;;;;;;;0.20;0.10;;;;;;;;;;5042334;28;20033;-81
2022/11/17 03:12:55;;;;;;;0.20;0.10;;;;;;;;;;5042464;28;20037;-84
2022/11/17 03:15:24;;;;;;;0.20;0.10;;;;;;;;;;5043785;28;20175;-81
2022/11/17 03:18:10;;;;;;;0.20;0.10;;;;;;;;;;5027743;28;20032;-82
2022/11/17 03:20:42;;;;;;;0.20;0.10;;;;;;;;;;5023641;28;20492;-84
2022/11/17 03:23:13;;;;;;;0.75;0.70;;;;;;;;;;5044089;28;20067;-83
2022/11/17 03:25:41;;;;;;;0.20;0.00;;;;;;;;;;5025504;28;20036;-83
2022/11/17 03:28:07;;;;;;;0.20;0.10;;;;;;;;;;5029677;28;20083;-83
2022/11/17 03:30:35;;;;;;;0.65;0.43;;;;;;;;;;5044405;28;20041;-82
2022/11/17 03:33:04;;;;;;;0.25;0.15;;;;;;;;;;5029935;28;20036;-82
2022/11/17 03:35:33;;;;;;;0.20;0.10;;;;;;;;;;5028177;28;20102;-84
2022/11/17 03:38:01;;;;;;;0.40;0.40;;;;;;;;;;5021040;28;20041;-80
2022/11/17 03:40:29;;;;;;;0.20;0.10;;;;;;;;;;5042644;28;20041;-87
2022/11/17 03:42:56;;;;;;;0.20;0.10;;;;;;;;;;5029394;28;20049;-83
2022/11/17 03:45:27;;;;;;;0.20;0.10;;;;;;;;;;5040819;28;20044;-83
2022/11/17 03:48:02;;;;;;;0.20;0.10;;;;;;;;;;5041757;28;20079;-85
2022/11/17 03:50:36;;;;;;;0.20;0.10;;;;;;;;;;5027384;28;20040;-82
2022/11/17 03:53:03;;;;;;;0.20;0.10;;;;;;;;;;5041358;28;20052;-85
2022/11/17 03:55:55;;;;;;;0.20;0.10;;;;;;;;;;5017474;28;20032;-84
2022/11/17 03:58:22;;;;;;;0.20;0.10;;;;;;;;;;5039420;28;20530;-81
2022/11/17 04:00:50;;;;;;;0.20;0.10;;;;;;;;;;5042597;28;20040;-85
2022/11/17 04:03:16;;;;;;;0.20;0.10;;;;;;;;;;5020730;28;20041;-83
2022/11/17 04:05:42;;;;;;;0.22;0.22;;;;;;;;;;5028566;28;20032;-82
2022/11/17 04:08:08;;;;;;;0.20;0.10;;;;;;;;;;5016773;28;20097;-83
2022/11/17 04:15:55;;;;;;;0.20;0.10;;;;;;;;;;5044377;28;20036;-79
2022/11/17 04:16:05;;;;;;;0.20;0.10;;;;;;;;;;5028795;28;20498;-79
2022/11/17 04:18:31;;;;;;;0.20;0.10;;;;;;;;;;5025913;28;20041;-83
2022/11/17 04:20:57;;;;;;;0.20;0.10;;;;;;;;;;5008548;28;21634;-83
2022/11/17 04:23:24;;;;;;;0.20;0.10;;;;;;;;;;5011499;28;20045;-83
2022/11/17 04:28:37;;;;;;;0.20;0.10;;;;;;;;;;5042330;28;20068;-80
2022/11/17 04:31:06;;;;;;;0.20;0.10;;;;;;;;;;5018598;28;20040;-86
2022/11/17 04:33:33;;;;;;;0.20;0.10;;;;;;;;;;5029185;28;20423;-86
2022/11/17 04:35:59;;;;;;;0.28;0.25;;;;;;;;;;5010117;28;20585;-85
2022/11/17 04:38:25;;;;;;;0.20;0.10;;;;;;;;;;5022143;28;20048;-84
2022/11/17 04:43:39;;;;;;;0.20;0.10;;;;;;;;;;5027598;28;20128;-84
2022/11/17 04:46:06;;;;;;;0.20;0.10;;;;;;;;;;5026991;28;20041;-88
2022/11/17 04:48:32;;;;;;;0.20;0.10;;;;;;;;;;5011536;28;20162;-87
2022/11/17 04:50:58;;;;;;;0.20;0.10;;;;;;;;;;5026989;28;20038;-86
2022/11/17 04:53:24;;;;;;;0.20;0.10;;;;;;;;;;5025144;28;20061;-81
2022/11/17 04:55:50;;;;;;;0.20;0.10;;;;;;;;;;5024645;28;20033;-81
2022/11/17 04:58:16;;;;;;;0.20;0.10;;;;;;;;;;5026866;28;20037;-82
2022/11/17 05:00:42;;;;;;;0.20;0.10;;;;;;;;;;5021232;28;20040;-86
2022/11/17 05:03:08;;;;;;;0.20;0.10;;;;;;;;;;5009029;28;20113;-85
2022/11/17 05:05:34;;;;;;;0.20;0.10;;;;;;;;;;5011205;28;20433;-83
2022/11/17 05:08:00;;;;;;;0.20;0.10;;;;;;;;;;5042361;28;20056;-84
2022/11/17 05:13:21;;;;;;;0.20;0.10;;;;;;;;;;5043947;28;20503;-80
2022/11/17 05:18:32;;;;;;;0.20;0.10;;;;;;;;;;5041937;28;20040;-86
2022/11/17 05:21:02;;;;;;;0.20;0.10;;;;;;;;;;5010184;28;20051;-84
2022/11/17 05:26:13;;;;;;;0.20;0.10;;;;;;;;;;5039222;28;20269;-83
2022/11/17 05:28:39;;;;;;;0.65;0.40;;;;;;;;;;5012997;28;20123;-85
2022/11/17 05:31:05;;;;;;;0.20;0.10;;;;;;;;;;5040075;28;20045;-82
2022/11/17 05:33:31;;;;;;;0.20;0.10;;;;;;;;;;5037734;28;20495;-84
2022/11/17 05:35:57;;;;;;;0.20;0.10;;;;;;;;;;5022119;28;20040;-82
2022/11/17 05:38:23;;;;;;;0.20;0.10;;;;;;;;;;5025343;28;20099;-84
2022/11/17 05:40:50;;;;;;;0.20;0.10;;;;;;;;;;5040246;28;20483;-86
2022/11/17 05:43:16;;;;;;;0.20;0.10;;;;;;;;;;5011922;28;20094;-85
2022/11/17 05:45:42;;;;;;;0.20;0.10;;;;;;;;;;5011478;28;20503;-87
2022/11/17 05:48:08;;;;;;;0.20;0.10;;;;;;;;;;5011239;28;20037;-87
2022/11/17 05:50:35;;;;;;;0.20;0.10;;;;;;;;;;5022879;28;20033;-85
2022/11/17 05:53:01;;;;;;;0.20;0.10;;;;;;;;;;5040517;28;20045;-85
2022/11/17 05:55:27;;;;;;;0.20;0.10;;;;;;;;;;5026636;28;20053;-86
2022/11/17 05:57:54;;;;;;;0.55;0.55;;;;;;;;;;5028124;28;20056;-85
2022/11/17 06:00:20;;;;;;;0.20;0.10;;;;;;;;;;5027989;28;20049;-85
2022/11/17 06:02:49;;;;;;;0.20;0.10;;;;;;;;;;5014020;28;20792;-86
2022/11/17 06:05:15;;;;;;;0.20;0.10;;;;;;;;;;5045762;28;20159;-86
2022/11/17 06:07:42;;;;;;;0.20;0.10;;;;;;;;;;5029083;28;20296;-87
2022/11/17 06:10:08;;;;;;;0.20;0.10;;;;;;;;;;5029595;28;20044;-84
2022/11/17 06:12:34;;;;;;;0.20;0.10;;;;;;;;;;5029165;28;20040;-82
2022/11/17 06:15:00;;;;;;;0.20;0.10;;;;;;;;;;5028676;28;20147;-81
2022/11/17 06:17:28;;;;;;;0.20;0.10;;;;;;;;;;5048610;28;20029;-84
2022/11/17 06:19:57;;;;;;;0.20;0.10;;;;;;;;;;5036177;28;20059;-81
2022/11/17 06:22:25;;;;;;;0.20;0.10;;;;;;;;;;5052569;28;20048;-82
2022/11/17 06:24:51;;;;;;;0.20;0.10;;;;;;;;;;5022417;28;20041;-82
2022/11/17 06:27:17;;;;;;;0.20;0.17;;;;;;;;;;5020901;28;20406;-80
2022/11/17 06:29:44;;;;;;;0.20;0.10;;;;;;;;;;5029795;28;20087;-82
2022/11/17 06:32:10;;;;;;;0.20;0.10;;;;;;;;;;5014204;28;20029;-82
2022/11/17 06:34:36;;;;;;;0.20;0.10;;;;;;;;;;5027470;28;20095;-82
2022/11/17 06:37:02;;;;;;;0.20;0.10;;;;;;;;;;5030140;28;20086;-80
2022/11/17 06:39:28;;;;;;;0.20;0.10;;;;;;;;;;5045432;28;20041;-85
2022/11/17 06:41:54;;;;;;;0.20;0.10;;;;;;;;;;5028690;28;20045;-83
2022/11/17 06:44:20;;;;;;;0.20;0.10;;;;;;;;;;5013333;28;20072;-79
2022/11/17 06:46:46;;;;;;;0.20;0.10;;;;;;;;;;5029951;28;20186;-82
2022/11/17 06:49:12;;;;;;;0.20;0.10;;;;;;;;;;5020566;28;20044;-83
2022/11/17 06:51:38;;;;;;;0.20;0.10;;;;;;;;;;5012903;28;20129;-83
2022/11/17 06:54:07;;;;;;;0.20;0.10;;;;;;;;;;5029574;28;20040;-79
2022/11/17 06:56:33;;;;;;;0.20;0.10;;;;;;;;;;5031590;28;20434;-82
2022/11/17 06:58:59;;;;;;;0.20;0.10;;;;;;;;;;5012546;28;20041;-85
2022/11/17 07:01:25;;;;;;;0.20;0.10;;;;;;;;;;5011501;28;20033;-83
2022/11/17 07:03:51;;;;;;;0.20;0.10;;;;;;;;;;5037852;28;20052;-85
2022/11/17 07:06:17;;;;;;;0.20;0.10;;;;;;;;;;5012613;28;20060;-84
2022/11/17 07:08:44;;;;;;;0.20;0.10;;;;;;;;;;5026984;28;20693;-85
2022/11/17 07:11:12;;;;;;;0.20;0.10;;;;;;;;;;5043456;28;20041;-83
2022/11/17 07:13:41;;;;;;;0.20;0.10;;;;;;;;;;5045023;28;20036;-84
2022/11/17 07:16:14;;;;;;;0.20;0.10;;;;;;;;;;5038655;28;20040;-85
2022/11/17 07:18:41;;;;;;;0.20;0.10;;;;;;;;;;5044196;28;20041;-83
2022/11/17 07:21:09;;;;;;;0.20;0.10;;;;;;;;;;5031419;28;20045;-86
2022/11/17 07:23:35;;;;;;;0.20;0.10;;;;;;;;;;5030324;28;20041;-83
2022/11/17 07:26:01;;;;;;;0.20;0.10;;;;;;;;;;5033762;28;20041;-82
2022/11/17 07:28:28;;;;;;;0.20;0.10;;;;;;;;;;5031143;28;20029;-84
2022/11/17 07:30:54;;;;;;;0.20;0.10;;;;;;;;;;5042544;28;20483;-86
2022/11/17 07:33:20;;;;;;;0.20;0.10;;;;;;;;;;5029046;28;20403;-82
2022/11/17 07:35:47;;;;;;;0.20;0.10;;;;;;;;;;5028824;28;20044;-82
2022/11/17 07:38:13;;;;;;;0.20;0.10;;;;;;;;;;5044880;28;20515;-88
2022/11/17 07:40:39;;;;;;;0.43;0.40;;;;;;;;;;5026832;28;20048;-86
2022/11/17 07:43:05;;;;;;;0.20;0.10;;;;;;;;;;5040053;28;20037;-85
2022/11/17 07:45:31;;;;;;;0.20;0.10;;;;;;;;;;5026254;28;20068;-81
2022/11/17 07:47:58;;;;;;;0.20;0.10;;;;;;;;;;5012068;28;20033;-85
2022/11/17 07:50:25;;;;;;;0.20;0.10;;;;;;;;;;5028896;28;20040;-84
2022/11/17 07:52:52;;;;;;;0.30;0.30;;;;;;;;;;5030624;28;20391;-88
2022/11/17 07:55:19;;;;;;;0.20;0.10;;;;;;;;;;5027007;28;20048;-84
2022/11/17 07:57:45;;;;;;;0.20;0.10;;;;;;;;;;5012341;28;20037;-84
2022/11/17 08:00:11;;;;;;;0.20;0.10;;;;;;;;;;5043643;28;20406;-85
2022/11/17 08:02:38;;;;;;;0.20;0.10;;;;;;;;;;5027820;28;20040;-87
2022/11/17 08:05:10;;;;;;;0.20;0.10;;;;;;;;;;5045311;28;20145;-86
2022/11/17 08:07:36;;;;;;;0.20;0.10;;;;;;;;;;5043025;28;20072;-88
2022/11/17 08:10:02;;;;;;;0.20;0.10;;;;;;;;;;5012200;28;20124;-82
2022/11/17 08:12:28;;;;;;;0.30;0.20;;;;;;;;;;5040991;28;20041;-79
2022/11/17 08:14:54;;;;;;;0.20;0.10;;;;;;;;;;5028413;28;20040;-84
2022/11/17 08:17:20;;;;;;;0.20;0.10;;;;;;;;;;5027991;28;20041;-84
2022/11/17 08:19:47;;;;;;;0.20;0.10;;;;;;;;;;5028063;28;20824;-86
2022/11/17 08:22:13;;;;;;;0.20;0.10;;;;;;;;;;5009564;28;20037;-84
2022/11/17 08:24:39;;;;;;;0.20;0.10;;;;;;;;;;5006564;28;20139;-83
2022/11/17 08:27:05;;;;;;;0.20;0.10;;;;;;;;;;5029919;28;20040;-83
2022/11/17 08:29:31;;;;;;;0.20;0.10;;;;;;;;;;5028285;28;20049;-85
2022/11/17 08:31:57;;;;;;;0.20;0.10;;;;;;;;;;5028993;28;20039;-85
2022/11/17 08:34:23;;;;;;;0.20;0.10;;;;;;;;;;5028206;28;20040;-81
2022/11/17 08:36:49;;;;;;;1.27;0.30;;;;;;;;;;5029812;28;20083;-86
2022/11/17 08:39:15;;;;;;;0.20;0.10;;;;;;;;;;5044157;28;20036;-86
2022/11/17 08:41:41;;;;;;;0.20;0.10;;;;;;;;;;4977564;23;1188778;-80
2022/11/17 08:44:08;;;;;;;0.20;0.10;;;;;;;;;;5014644;28;20088;-82
2022/11/17 08:46:34;;;;;;;0.20;0.10;;;;;;;;;;5023215;28;20065;-80
2022/11/17 08:49:00;;;;;;;0.20;0.10;;;;;;;;;;5020120;28;20052;-83
2022/11/17 08:51:28;;;;;;;0.20;0.10;;;;;;;;;;5030741;28;20554;-80
2022/11/17 08:53:54;;;;;;;0.52;0.25;;;;;;;;;;5035847;28;20072;-82
2022/11/17 08:56:20;;;;;;;0.20;0.10;;;;;;;;;;5007139;28;20395;-81
2022/11/17 08:58:46;;;;;;;0.20;0.10;;;;;;;;;;5024699;28;20048;-82
2022/11/17 09:01:14;;;;;;;0.20;0.10;;;;;;;;;;5035540;28;20033;-84
2022/11/17 09:03:41;;;;;;;0.20;0.10;;;;;;;;;;5039255;28;20076;-82
2022/11/17 09:06:08;;;;;;;0.52;0.30;;;;;;;;;;5025137;28;20037;-80
2022/11/17 09:08:34;;;;;;;0.20;0.10;;;;;;;;;;5042900;28;20072;-82
2022/11/17 09:11:03;;;;;;;0.20;0.10;;;;;;;;;;5031939;28;20060;-80
2022/11/17 09:13:30;;;;;;;0.20;0.10;;;;;;;;;;5040195;28;20557;-81
2022/11/17 09:16:00;;;;;;;0.20;0.10;;;;;;;;;;5023801;28;20037;-83
2022/11/17 09:18:26;;;;;;;0.20;0.10;;;;;;;;;;5040765;28;20033;-84
2022/11/17 09:20:52;;;;;;;0.20;0.10;;;;;;;;;;5006644;28;20057;-82
2022/11/17 09:23:18;;;;;;;0.20;0.10;;;;;;;;;;5029736;28;20044;-81
2022/11/17 09:25:44;;;;;;;0.20;0.10;;;;;;;;;;5020682;28;20053;-80
2022/11/17 09:28:10;;;;;;;0.20;0.10;;;;;;;;;;5019264;28;21074;-83
2022/11/17 09:30:36;;;;;;;0.20;0.10;;;;;;;;;;5026409;28;20076;-80
2022/11/17 09:33:04;;;;;;;0.20;0.20;;;;;;;;;;5034778;28;20502;-79
2022/11/17 09:35:33;;;;;;;0.20;0.10;;;;;;;;;;5031340;28;20068;-80
2022/11/17 09:38:00;;;;;;;0.20;0.10;;;;;;;;;;5028423;28;20041;-82
2022/11/17 09:40:27;;;;;;;0.20;0.10;;;;;;;;;;5013561;28;20756;-80
2022/11/17 09:42:53;;;;;;;0.20;0.10;;;;;;;;;;5042904;28;20056;-83
2022/11/17 09:45:19;;;;;;;0.20;0.13;;;;;;;;;;5019838;28;20521;-83
2022/11/17 09:47:58;;;;;;;0.20;0.10;;;;;;;;;;5039556;28;20435;-82
2022/11/17 09:50:24;;;;;;;0.20;0.10;;;;;;;;;;5018358;28;20506;-82
2022/11/17 09:52:56;;;;;;;0.20;0.10;;;;;;;;;;5062811;28;20503;-81
2022/11/17 09:55:34;;;;;;;0.20;0.10;;;;;;;;;;5041958;28;20044;-82
2022/11/17 09:58:21;;;;;;;0.20;0.17;;;;;;;;;;5029827;28;20047;-82
2022/11/17 10:00:51;;;;;;;0.20;0.10;;;;;;;;;;5033674;28;20044;-85
2022/11/17 10:03:22;;;;;;;0.20;0.10;;;;;;;;;;5047881;28;20046;-80
2022/11/17 10:05:49;;;;;;;0.20;0.10;;;;;;;;;;5024116;28;20070;-80
2022/11/17 10:08:17;;;;;;;0.20;0.10;;;;;;;;;;5043884;28;20064;-81
2022/11/17 10:10:43;;;;;;;0.20;0.10;;;;;;;;;;5020458;28;20042;-81
2022/11/17 10:13:16;;;;;;;0.20;0.10;;;;;;;;;;5045520;28;20447;-81
2022/11/17 10:15:47;;;;;;;0.20;0.10;;;;;;;;;;5030132;28;20068;-82
2022/11/17 10:18:14;;;;;;;0.20;0.10;;;;;;;;;;5047468;28;20033;-82
2022/11/17 10:20:41;;;;;;;0.20;0.10;;;;;;;;;;5042328;28;20045;-81
2022/11/17 10:23:10;;;;;;;0.20;0.10;;;;;;;;;;5019289;28;20075;-82
2022/11/17 10:25:36;;;;;;;0.20;0.10;;;;;;;;;;5023036;28;20489;-82
2022/11/17 10:28:03;;;;;;;0.20;0.10;;;;;;;;;;5043456;28;20094;-84
2022/11/17 10:30:29;;;;;;;0.20;0.10;;;;;;;;;;5043250;28;20044;-80
2022/11/17 10:32:59;;;;;;;0.20;0.10;;;;;;;;;;5036738;28;20044;-82
2022/11/17 10:35:29;;;;;;;0.20;0.20;;;;;;;;;;5022657;28;20121;-82
2022/11/17 10:38:00;;;;;;;0.20;0.10;;;;;;;;;;5023880;28;20133;-83
2022/11/17 10:40:30;;;;;;;0.20;0.10;;;;;;;;;;5016344;28;20041;-82
2022/11/17 10:42:58;;;;;;;0.20;0.10;;;;;;;;;;5025716;28;20048;-83
2022/11/17 10:45:24;;;;;;;0.20;0.10;;;;;;;;;;5028217;28;20044;-83
2022/11/17 10:47:50;;;;;;;0.20;0.10;;;;;;;;;;5010789;28;20089;-85
2022/11/17 10:50:20;;;;;;;0.20;0.10;;;;;;;;;;5043008;28;20048;-85
2022/11/17 10:52:46;;;;;;;0.20;0.10;;;;;;;;;;5043829;28;20046;-83
2022/11/17 10:55:33;;;;;;;0.20;0.10;;;;;;;;;;5032429;28;20037;-83
2022/11/17 10:58:19;;;;;;;0.20;0.10;;;;;;;;;;5042012;28;20530;-81
2022/11/17 11:00:51;;;;;;;0.20;0.10;;;;;;;;;;5032445;28;20048;-78
2022/11/17 11:03:19;;;;;;;0.20;0.10;;;;;;;;;;5047642;28;20172;-82
2022/11/17 11:06:04;;;;;;;0.20;0.10;;;;;;;;;;5031598;28;20069;-83
2022/11/17 11:09:06;;;;;;;0.20;0.10;;;;;;;;;;5037099;28;20099;-82
2022/11/17 11:11:37;;;;;;;0.20;0.10;;;;;;;;;;4972652;28;20046;-83
2022/11/17 11:14:12;;;;;;;0.20;0.10;;;;;;;;;;5019055;28;20078;-83
2022/11/17 11:16:38;;;;;;;0.20;0.10;;;;;;;;;;5018221;28;20037;-81
2022/11/17 11:19:10;;;;;;;0.20;0.10;;;;;;;;;;5043228;28;20035;-83
2022/11/17 11:21:40;;;;;;;0.20;0.10;;;;;;;;;;5040416;28;20086;-85
2022/11/17 11:24:09;;;;;;;0.20;0.10;;;;;;;;;;5022930;28;20056;-82
2022/11/17 11:26:41;;;;;;;0.20;0.10;;;;;;;;;;5016596;28;20075;-81
2022/11/17 11:29:20;;;;;;;0.20;0.10;;;;;;;;;;5030816;28;20044;-82
2022/11/17 11:31:58;;;;;;;0.20;0.10;;;;;;;;;;5045314;28;20041;-82
2022/11/17 11:34:45;;;;;;;0.20;0.10;;;;;;;;;;5033004;28;20036;-81
2022/11/17 11:37:12;;;;;;;0.20;0.10;;;;;;;;;;5035706;28;20755;-82
2022/11/17 11:39:50;;;;;;;0.20;0.10;;;;;;;;;;5007983;28;20041;-82
2022/11/17 11:42:22;;;;;;;0.20;0.10;;;;;;;;;;5037424;28;20049;-81
2022/11/17 11:44:55;;;;;;;0.20;0.10;;;;;;;;;;5024376;28;20071;-83
2022/11/17 11:47:21;;;;;;;0.20;0.10;;;;;;;;;;5058141;28;20048;-81
2022/11/17 11:49:50;;;;;;;0.20;0.10;;;;;;;;;;5036679;28;20313;-83
2022/11/17 11:52:21;;;;;;;0.20;0.10;;;;;;;;;;5041787;28;20399;-83
2022/11/17 11:54:50;;;;;;;0.20;0.10;;;;;;;;;;5015567;28;20041;-83
2022/11/17 11:57:18;;;;;;;0.20;0.10;;;;;;;;;;5037887;28;20048;-84
2022/11/17 11:59:52;;;;;;;0.20;0.10;;;;;;;;;;5042021;28;20128;-81
2022/11/17 12:02:25;;;;;;;0.20;0.10;;;;;;;;;;5043205;28;20499;-79
2022/11/17 12:04:57;;;;;;;0.20;0.10;;;;;;;;;;5039656;28;20036;-82
2022/11/17 12:07:26;;;;;;;0.20;0.10;;;;;;;;;;5045538;28;20053;-84
2022/11/17 12:09:55;;;;;;;0.20;0.10;;;;;;;;;;5042330;28;20656;-83
2022/11/17 12:12:27;;;;;;;0.20;0.10;;;;;;;;;;5022818;28;20325;-82
2022/11/17 12:15:06;;;;;;;0.20;0.15;;;;;;;;;;5022536;28;20063;-81
2022/11/17 12:17:32;;;;;;;0.20;0.10;;;;;;;;;;5043201;28;20106;-80
2022/11/17 12:20:13;;;;;;;0.20;0.10;;;;;;;;;;5020153;28;20609;-80
2022/11/17 12:22:48;;;;;;;0.20;0.10;;;;;;;;;;5034728;28;20030;-81
2022/11/17 12:25:16;;;;;;;0.20;0.10;;;;;;;;;;5036852;28;20072;-81
2022/11/17 12:27:44;;;;;;;0.20;0.10;;;;;;;;;;5037922;28;20072;-83
2022/11/17 12:30:28;;;;;;;0.20;0.10;;;;;;;;;;5036918;28;20034;-83
2022/11/17 12:32:54;;;;;;;0.20;0.10;;;;;;;;;;5018675;28;20044;-82
2022/11/17 12:35:25;;;;;;;0.20;0.10;;;;;;;;;;5040352;28;20194;-82
2022/11/17 12:38:10;;;;;;;0.20;0.10;;;;;;;;;;5015755;28;20048;-81
2022/11/17 12:40:40;;;;;;;0.20;0.10;;;;;;;;;;5026715;28;20091;-81
2022/11/17 12:43:15;;;;;;;0.20;0.10;;;;;;;;;;5041796;28;20041;-83
2022/11/17 12:45:53;;;;;;;0.20;0.10;;;;;;;;;;5032021;28;20040;-82
2022/11/17 12:48:23;;;;;;;0.20;0.10;;;;;;;;;;5039238;28;20043;-81
2022/11/17 12:50:55;;;;;;;0.20;0.10;;;;;;;;;;5040333;28;20120;-82
2022/11/17 12:53:24;;;;;;;0.20;0.10;;;;;;;;;;5024317;28;20114;-82
2022/11/17 12:55:50;;;;;;;0.20;0.00;;;;;;;;;;5047976;28;20105;-81
2022/11/17 12:58:32;;;;;;;0.20;0.10;;;;;;;;;;5017080;28;20041;-83
2022/11/17 13:01:23;;;;;;;0.20;0.10;;;;;;;;;;5048817;28;20048;-80
2022/11/17 13:04:03;;;;;;;0.20;0.10;;;;;;;;;;5047873;28;21917;-80
2022/11/17 13:06:29;;;;;;;0.20;0.10;;;;;;;;;;5034452;28;20448;-80
2022/11/17 13:09:05;;;;;;;0.20;0.10;;;;;;;;;;5044596;28;20033;-81
2022/11/17 13:11:31;;;;;;;0.20;0.10;;;;;;;;;;5033393;28;20117;-81
2022/11/17 13:14:14;;;;;;;0.20;0.10;;;;;;;;;;5033251;28;20036;-80
2022/11/17 13:16:48;;;;;;;0.20;0.10;;;;;;;;;;5035691;28;20043;-81
2022/11/17 13:19:30;;;;;;;0.20;0.10;;;;;;;;;;5027707;28;20041;-82
2022/11/17 13:22:00;;;;;;;0.20;0.10;;;;;;;;;;5029233;28;20395;-81
2022/11/17 13:24:31;;;;;;;0.20;0.10;;;;;;;;;;5029412;28;20067;-79
2022/11/17 13:26:58;;;;;;;0.20;0.10;;;;;;;;;;5032011;28;20045;-82
2022/11/17 13:29:24;;;;;;;0.20;0.10;;;;;;;;;;5044516;28;20146;-82
2022/11/17 13:31:50;;;;;;;0.20;0.10;;;;;;;;;;5022744;28;20445;-83
2022/11/17 13:34:17;;;;;;;0.20;0.10;;;;;;;;;;5031391;28;20090;-82
2022/11/17 13:36:54;;;;;;;0.20;0.10;;;;;;;;;;5020431;28;20116;-81
2022/11/17 13:39:20;;;;;;;0.20;0.10;;;;;;;;;;5051055;28;20060;-82
2022/11/17 13:41:46;;;;;;;0.20;0.10;;;;;;;;;;5030688;28;20061;-83
2022/11/17 13:44:14;;;;;;;0.20;0.20;;;;;;;;;;5032758;28;20037;-83
2022/11/17 13:46:40;;;;;;;0.20;0.10;;;;;;;;;;5031669;28;20032;-81
2022/11/17 13:49:25;;;;;;;0.20;0.10;;;;;;;;;;5019982;28;20097;-83
2022/11/17 13:51:51;;;;;;;0.20;0.00;;;;;;;;;;5046301;28;20163;-84
2022/11/17 13:54:17;;;;;;;0.20;0.10;;;;;;;;;;5016564;28;20063;-82
2022/11/17 13:56:46;;;;;;;0.20;0.10;;;;;;;;;;5048546;28;20041;-82
2022/11/17 13:59:23;;;;;;;0.20;0.10;;;;;;;;;;5032988;28;20043;-83
2022/11/17 14:02:09;;;;;;;0.20;0.10;;;;;;;;;;5042082;28;20083;-82
2022/11/17 14:04:35;;;;;;;0.20;0.10;;;;;;;;;;5045203;28;20131;-83
2022/11/17 14:07:02;;;;;;;0.20;0.10;;;;;;;;;;5010645;28;20121;-84
2022/11/17 14:09:29;;;;;;;0.20;0.10;;;;;;;;;;5033643;28;20099;-82
2022/11/17 14:11:56;;;;;;;0.20;0.10;;;;;;;;;;5045445;28;20042;-85
2022/11/17 14:14:33;;;;;;;0.20;0.10;;;;;;;;;;5028642;28;20124;-87
2022/11/17 14:17:19;;;;;;;0.20;0.10;;;;;;;;;;5046881;28;20048;-83
2022/11/17 14:19:45;;;;;;;0.20;0.10;;;;;;;;;;5052702;28;20124;-83
2022/11/17 14:22:11;;;;;;;0.20;0.10;;;;;;;;;;5049897;28;20099;-85
2022/11/17 14:24:38;;;;;;;0.20;0.10;;;;;;;;;;5034301;28;20036;-83
2022/11/17 14:27:30;;;;;;;0.20;0.10;;;;;;;;;;5054253;28;20477;-83
2022/11/17 14:29:56;;;;;;;0.20;0.10;;;;;;;;;;5028893;28;20110;-86
2022/11/17 14:32:23;;;;;;;0.20;0.10;;;;;;;;;;5037490;28;20038;-84
2022/11/17 14:34:49;;;;;;;0.20;0.10;;;;;;;;;;5037124;28;20566;-81
2022/11/17 14:37:18;;;;;;;0.20;0.10;;;;;;;;;;5057440;28;20425;-84
2022/11/17 14:39:44;;;;;;;0.20;0.10;;;;;;;;;;5039090;28;20052;-81
2022/11/17 14:42:13;;;;;;;0.50;0.35;;;;;;;;;;5060302;22;20029;-91
2022/11/17 14:44:39;;;;;;;0.20;0.10;;;;;;;;;;5004608;28;20534;-90
2022/11/17 14:47:05;;;;;;;0.20;0.10;;;;;;;;;;5006834;28;20488;-88
2022/11/17 14:49:31;;;;;;;0.20;0.10;;;;;;;;;;5006546;28;20453;-87
2022/11/17 14:51:58;;;;;;;0.20;0.10;;;;;;;;;;5015974;28;20123;-87
2022/11/17 14:54:24;;;;;;;0.20;0.10;;;;;;;;;;5016981;28;20079;-91
2022/11/17 14:56:50;;;;;;;0.20;0.10;;;;;;;;;;5022437;28;20485;-89
2022/11/17 14:59:16;;;;;;;0.20;0.10;;;;;;;;;;5018458;28;20128;-91
2022/11/17 15:01:45;;;;;;;0.20;0.10;;;;;;;;;;5021977;28;20041;-90
2022/11/17 15:04:12;;;;;;;0.20;0.10;;;;;;;;;;5033645;28;20589;-88
2022/11/17 15:06:39;;;;;;;0.20;0.10;;;;;;;;;;5038197;28;20041;-89
2022/11/17 15:09:05;;;;;;;0.20;0.10;;;;;;;;;;5022414;28;20124;-89
2022/11/17 15:11:31;;;;;;;0.20;0.10;;;;;;;;;;5018411;28;20035;-89
2022/11/17 15:14:01;;;;;;;0.20;0.10;;;;;;;;;;5020592;28;20039;-87
2022/11/17 15:16:27;;;;;;;0.20;0.10;;;;;;;;;;5037316;28;20042;-88
2022/11/17 15:18:53;;;;;;;0.20;0.20;;;;;;;;;;5020513;28;20554;-88
2022/11/17 15:21:20;;;;;;;0.20;0.10;;;;;;;;;;5018535;28;20033;-91